Relevés horaires Eggishorn (Suisse)


Relevés horaires à Eggishorn - Jeudi 12 Mars 2015
Heure UTC1 Température [°C] Vent [km/h] Hum. [%] Pres.4 [hPa] Visi. [Km] Nébu. [octa] Préc.5 [mm] Cond.
2m. Res. Ros. Dir.2 Vit. Moy. Raf.3
23:00 -6.0 -11.3 -31.7 NNO 13.0 16.7 18.5 11 700(-0.8/3h) -- -- -- --
22:00 -6.2 -12 -29.5 NNO 14.8 14.8 16.7 14 700(-0.1/3h) -- -- -- --
21:00 -7.7 -12.9 -19.3 NO 11.1 11.1 14.8 39 700(0.1/3h) -- -- -- --
20:00 -6.8 -11.2 -28.5 NO 9.3 9.3 11.1 16 700(0.2/3h) -- -- -- --
19:00 -7.3 -11.8 -21.9 O 9.3 11.1 14.8 30 700(0.1/3h) -- -- -- --
18:00 -7.4 -11.9 -23.3 O 9.3 16.7 25.9 27 700(0.1/3h) -- -- -- --
17:00 -6.3 -9.9 -17.1 O 7.4 9.3 13.0 42 700(-0.1/3h) -- -- -- --
16:00 -6.1 -9.7 -18.7 ONO 7.4 11.1 14.8 36 700(0.0/3h) -- -- -- --
15:00 -5.5 -5.5 -15.1 O 3.7 16.7 25.9 47 700(0.0/3h) -- -- -- --
14:00 -5.6 -5.6 -15.7 O 3.7 5.6 16.7 45 700(-0.3/3h) -- -- -- --
13:00 -6.4 -10 -14.9 E 7.4 16.7 25.9 51 700(-0.4/3h) -- -- -- --
12:00 -6.2 -10.5 -12.3 SSE 9.3 27.8 53.7 62 700(-0.3/3h) -- -- -- --
11:00 -6.3 -9.1 -17.0 ESE 5.6 11.1 25.9 42 700(-0.1/3h) -- -- -- --
10:00 -7.1 -10 -20.3 E 5.6 22.2 40.7 34 700(-0.1/3h) -- -- -- --
09:00 -7.5 -15.1 -26.0 E 22.2 27.8 53.7 21 700(-0.4/3h) -- -- -- --
08:00 -4.8 -11 -27.6 N 18.5 18.5 53.7 15 700(-0.3/3h) -- -- -- --
07:00 -7.7 -14.3 -25.9 NE 16.7 18.5 44.4 22 700(-0.5/3h) -- -- -- --
06:00 -7.5 -13.2 -24.2 NE 13.0 40.7 74.1 25 700(-0.4/3h) -- -- -- --
05:00 -6.6 -13.3 -26.7 NNE 18.5 24.1 53.7 18 700(-0.5/3h) -- -- -- --
04:00 -7.6 -16.6 -17.3 NNO 31.5 37.0 63.0 46 700(-0.8/3h) -- -- -- --
03:00 -6.5 -15.8 -24.9 NNO 37.0 40.7 74.1 21 700(-0.9/3h) -- -- -- --
02:00 -6.5 -16 -30.5 NNO 38.9 40.7 70.4 13 700(-1.0/3h) -- -- -- --
01:00 -6.4 -15.8 -29.6 NNO 38.9 40.7 64.8 14 700(-0.6/3h) -- -- -- --
00:00 -6.4 -15 -25.5 NO 31.5 50.0 72.2 20 700(-0.6/3h) -- -- -- --

1 Coordinated Universal Time. Actuellement il est 15:00 locale et 13:00 UTC.

2 Le vent souffle depuis la direction indiquée vers la direction oposée.

3 Les rafales max. sont disponible 40 min après l'heure du relevé.

4 Pour les stations d'altitude (plus de 600m) le géopotentiel du niveau le plus proche de la pression obligatoire est indiqué.

5 Les stations disposant d'un diffuseur peuvent indiquer "trace". Cela signifie que des précipitations ont touchés le sol mais que la quantité est inférieure à 0.1 mm.

Copyright

Les données affichées sur cette page sont la propriété exclusive de Météo Suisse.

Récapitulatif de la journée
Température [°C] Vent [km/h] Ensoleillement4 [h] Precipitations totale5 [mm] Pression [Hpa]
Min1 Max.2 Moy.3 Max. Min Max.
-7.8 -4.8 22.5 74.1 10 h 24 min 0 700.0 700.0

1 Température minimale relevée entre 18:00 UTC la veille et 18:00 UTC le jour donné.

2 Température maximale relevée entre 06:00 UTC le jour donné et 06:00 UTC le lendemain.

3 Vent moyen de la journée basé sur les relevés horaires.

4 Ensoleillement en heures relevé entre 06:00 UTC la veille et 06:00 UTC le jour donné.

5 Précipitations totales tombées entre 06:00 UTC la jour donné et 06:00 UTC le lendemain.

Graphiques horaires